sensor_id;sensor_type;location;lat;lon;timestamp;temperature;humidity
27016;DHT22;14557;0.000;0.000;2023-04-03T00:00:47;21.10;59.50
27016;DHT22;14557;0.000;0.000;2023-04-03T00:03:15;21.10;59.50
27016;DHT22;14557;0.000;0.000;2023-04-03T00:05:40;21.10;59.50
27016;DHT22;14557;0.000;0.000;2023-04-03T00:08:06;21.10;59.40
27016;DHT22;14557;0.000;0.000;2023-04-03T00:10:33;21.10;59.40
27016;DHT22;14557;0.000;0.000;2023-04-03T00:12:58;21.10;59.40
27016;DHT22;14557;0.000;0.000;2023-04-03T00:15:24;21.10;59.40
27016;DHT22;14557;0.000;0.000;2023-04-03T00:17:50;21.10;59.40
27016;DHT22;14557;0.000;0.000;2023-04-03T00:20:15;21.10;59.40
27016;DHT22;14557;0.000;0.000;2023-04-03T00:22:41;21.00;59.40
27016;DHT22;14557;0.000;0.000;2023-04-03T00:25:07;21.00;59.30
27016;DHT22;14557;0.000;0.000;2023-04-03T00:27:33;21.00;59.30
27016;DHT22;14557;0.000;0.000;2023-04-03T00:29:58;21.00;59.30
27016;DHT22;14557;0.000;0.000;2023-04-03T00:32:24;21.00;59.30
27016;DHT22;14557;0.000;0.000;2023-04-03T00:34:49;21.00;59.20
27016;DHT22;14557;0.000;0.000;2023-04-03T00:37:15;21.00;59.30
27016;DHT22;14557;0.000;0.000;2023-04-03T00:39:41;21.00;59.20
27016;DHT22;14557;0.000;0.000;2023-04-03T00:42:06;20.90;59.20
27016;DHT22;14557;0.000;0.000;2023-04-03T00:47:01;20.90;59.20
27016;DHT22;14557;0.000;0.000;2023-04-03T00:49:27;20.90;59.30
27016;DHT22;14557;0.000;0.000;2023-04-03T00:51:53;20.90;59.30
27016;DHT22;14557;0.000;0.000;2023-04-03T00:54:19;20.90;59.40
27016;DHT22;14557;0.000;0.000;2023-04-03T00:56:44;20.90;59.30
27016;DHT22;14557;0.000;0.000;2023-04-03T00:59:12;20.90;59.40
27016;DHT22;14557;0.000;0.000;2023-04-03T01:01:39;20.90;59.40
27016;DHT22;14557;0.000;0.000;2023-04-03T01:04:05;20.90;59.40
27016;DHT22;14557;0.000;0.000;2023-04-03T01:06:35;20.90;59.40
27016;DHT22;14557;0.000;0.000;2023-04-03T01:09:02;20.80;59.30
27016;DHT22;14557;0.000;0.000;2023-04-03T01:11:28;20.80;59.40
27016;DHT22;14557;0.000;0.000;2023-04-03T01:13:55;20.80;59.30
27016;DHT22;14557;0.000;0.000;2023-04-03T01:16:20;20.80;59.30
27016;DHT22;14557;0.000;0.000;2023-04-03T01:18:46;20.80;59.30
27016;DHT22;14557;0.000;0.000;2023-04-03T01:23:49;20.80;59.30
27016;DHT22;14557;0.000;0.000;2023-04-03T01:26:18;20.80;59.30
27016;DHT22;14557;0.000;0.000;2023-04-03T01:28:44;20.70;59.30
27016;DHT22;14557;0.000;0.000;2023-04-03T01:31:20;20.70;59.30
27016;DHT22;14557;0.000;0.000;2023-04-03T01:33:47;20.70;59.30
27016;DHT22;14557;0.000;0.000;2023-04-03T01:36:18;20.70;59.30
27016;DHT22;14557;0.000;0.000;2023-04-03T01:38:44;20.70;59.30
27016;DHT22;14557;0.000;0.000;2023-04-03T01:41:09;20.70;59.20
27016;DHT22;14557;0.000;0.000;2023-04-03T01:43:35;20.70;59.20
27016;DHT22;14557;0.000;0.000;2023-04-03T01:46:00;20.70;59.20
27016;DHT22;14557;0.000;0.000;2023-04-03T01:48:26;20.60;59.10
27016;DHT22;14557;0.000;0.000;2023-04-03T01:50:51;20.60;59.10
27016;DHT22;14557;0.000;0.000;2023-04-03T01:53:17;20.60;59.10
27016;DHT22;14557;0.000;0.000;2023-04-03T01:55:43;20.60;59.10
27016;DHT22;14557;0.000;0.000;2023-04-03T01:58:09;20.60;59.10
27016;DHT22;14557;0.000;0.000;2023-04-03T02:00:34;20.60;59.10
27016;DHT22;14557;0.000;0.000;2023-04-03T02:03:01;20.60;59.10
27016;DHT22;14557;0.000;0.000;2023-04-03T02:05:27;20.60;59.10
27016;DHT22;14557;0.000;0.000;2023-04-03T02:07:52;20.60;59.10
27016;DHT22;14557;0.000;0.000;2023-04-03T02:10:18;20.50;59.00
27016;DHT22;14557;0.000;0.000;2023-04-03T02:12:44;20.60;59.00
27016;DHT22;14557;0.000;0.000;2023-04-03T02:15:10;20.50;58.90
27016;DHT22;14557;0.000;0.000;2023-04-03T02:17:36;20.50;59.00
27016;DHT22;14557;0.000;0.000;2023-04-03T02:20:01;20.50;59.00
27016;DHT22;14557;0.000;0.000;2023-04-03T02:22:28;20.50;59.00
27016;DHT22;14557;0.000;0.000;2023-04-03T02:24:54;20.50;59.50
27016;DHT22;14557;0.000;0.000;2023-04-03T02:27:19;20.50;59.00
27016;DHT22;14557;0.000;0.000;2023-04-03T02:29:45;20.50;59.00
27016;DHT22;14557;0.000;0.000;2023-04-03T02:32:10;20.50;59.00
27016;DHT22;14557;0.000;0.000;2023-04-03T02:34:36;20.40;58.90
27016;DHT22;14557;0.000;0.000;2023-04-03T02:37:01;20.40;58.90
27016;DHT22;14557;0.000;0.000;2023-04-03T02:39:27;20.40;58.90
27016;DHT22;14557;0.000;0.000;2023-04-03T02:41:53;20.40;58.90
27016;DHT22;14557;0.000;0.000;2023-04-03T02:44:18;20.40;58.90
27016;DHT22;14557;0.000;0.000;2023-04-03T02:46:44;20.40;58.90
27016;DHT22;14557;0.000;0.000;2023-04-03T02:49:10;20.30;58.80
27016;DHT22;14557;0.000;0.000;2023-04-03T02:51:35;20.30;58.80
27016;DHT22;14557;0.000;0.000;2023-04-03T02:54:01;20.30;58.80
27016;DHT22;14557;0.000;0.000;2023-04-03T02:56:27;20.30;58.80
27016;DHT22;14557;0.000;0.000;2023-04-03T02:58:52;20.30;58.80
27016;DHT22;14557;0.000;0.000;2023-04-03T03:01:18;20.30;58.80
27016;DHT22;14557;0.000;0.000;2023-04-03T03:03:43;20.30;58.80
27016;DHT22;14557;0.000;0.000;2023-04-03T03:06:10;20.30;58.80
27016;DHT22;14557;0.000;0.000;2023-04-03T03:08:36;20.30;58.80
27016;DHT22;14557;0.000;0.000;2023-04-03T03:11:02;20.20;58.70
27016;DHT22;14557;0.000;0.000;2023-04-03T03:13:28;20.30;58.80
27016;DHT22;14557;0.000;0.000;2023-04-03T03:15:54;20.30;58.80
27016;DHT22;14557;0.000;0.000;2023-04-03T03:18:20;20.20;59.30
27016;DHT22;14557;0.000;0.000;2023-04-03T03:20:45;20.30;59.30
27016;DHT22;14557;0.000;0.000;2023-04-03T03:23:11;20.20;58.70
27016;DHT22;14557;0.000;0.000;2023-04-03T03:25:40;20.20;58.70
27016;DHT22;14557;0.000;0.000;2023-04-03T03:28:06;20.20;58.70
27016;DHT22;14557;0.000;0.000;2023-04-03T03:30:31;20.20;58.70
27016;DHT22;14557;0.000;0.000;2023-04-03T03:32:57;20.20;58.70
27016;DHT22;14557;0.000;0.000;2023-04-03T03:35:22;20.20;58.70
27016;DHT22;14557;0.000;0.000;2023-04-03T03:37:48;20.20;58.70
27016;DHT22;14557;0.000;0.000;2023-04-03T03:40:14;20.10;58.60
27016;DHT22;14557;0.000;0.000;2023-04-03T03:42:39;20.10;58.60
27016;DHT22;14557;0.000;0.000;2023-04-03T03:45:05;20.10;58.70
27016;DHT22;14557;0.000;0.000;2023-04-03T03:47:31;20.10;58.60
27016;DHT22;14557;0.000;0.000;2023-04-03T03:49:57;20.10;58.70
27016;DHT22;14557;0.000;0.000;2023-04-03T03:52:22;20.10;58.60
27016;DHT22;14557;0.000;0.000;2023-04-03T03:54:48;20.10;58.70
27016;DHT22;14557;0.000;0.000;2023-04-03T03:57:13;20.10;58.70
27016;DHT22;14557;0.000;0.000;2023-04-03T03:59:40;20.10;58.70
27016;DHT22;14557;0.000;0.000;2023-04-03T04:02:07;20.00;58.60
27016;DHT22;14557;0.000;0.000;2023-04-03T04:04:32;20.00;58.60
27016;DHT22;14557;0.000;0.000;2023-04-03T04:06:58;20.00;58.60
27016;DHT22;14557;0.000;0.000;2023-04-03T04:09:26;20.00;58.60
27016;DHT22;14557;0.000;0.000;2023-04-03T04:11:51;20.00;58.70
27016;DHT22;14557;0.000;0.000;2023-04-03T04:14:17;20.00;58.60
27016;DHT22;14557;0.000;0.000;2023-04-03T04:16:42;20.00;58.60
27016;DHT22;14557;0.000;0.000;2023-04-03T04:19:08;20.00;58.60
27016;DHT22;14557;0.000;0.000;2023-04-03T04:21:34;19.90;58.90
27016;DHT22;14557;0.000;0.000;2023-04-03T04:24:00;19.90;58.60
27016;DHT22;14557;0.000;0.000;2023-04-03T04:26:25;19.90;58.60
27016;DHT22;14557;0.000;0.000;2023-04-03T04:28:51;19.90;58.60
27016;DHT22;14557;0.000;0.000;2023-04-03T04:31:16;19.90;58.60
27016;DHT22;14557;0.000;0.000;2023-04-03T04:33:42;19.90;58.60
27016;DHT22;14557;0.000;0.000;2023-04-03T04:36:08;19.90;58.60
27016;DHT22;14557;0.000;0.000;2023-04-03T04:38:33;19.80;58.50
27016;DHT22;14557;0.000;0.000;2023-04-03T04:40:59;19.80;58.50
27016;DHT22;14557;0.000;0.000;2023-04-03T04:43:24;19.80;58.50
27016;DHT22;14557;0.000;0.000;2023-04-03T04:45:59;19.80;58.50
27016;DHT22;14557;0.000;0.000;2023-04-03T04:48:25;19.80;58.50
27016;DHT22;14557;0.000;0.000;2023-04-03T04:50:51;19.80;58.50
27016;DHT22;14557;0.000;0.000;2023-04-03T04:53:16;19.80;58.50
27016;DHT22;14557;0.000;0.000;2023-04-03T04:55:42;19.80;58.50
27016;DHT22;14557;0.000;0.000;2023-04-03T04:58:08;19.80;58.50
27016;DHT22;14557;0.000;0.000;2023-04-03T05:00:33;19.80;58.50
27016;DHT22;14557;0.000;0.000;2023-04-03T05:02:59;19.70;58.40
27016;DHT22;14557;0.000;0.000;2023-04-03T05:05:24;19.70;58.40
27016;DHT22;14557;0.000;0.000;2023-04-03T05:07:50;19.70;58.40
27016;DHT22;14557;0.000;0.000;2023-04-03T05:10:15;19.70;58.40
27016;DHT22;14557;0.000;0.000;2023-04-03T05:12:41;19.70;58.40
27016;DHT22;14557;0.000;0.000;2023-04-03T05:15:07;19.70;58.40
27016;DHT22;14557;0.000;0.000;2023-04-03T05:17:33;19.70;58.40
27016;DHT22;14557;0.000;0.000;2023-04-03T05:19:58;19.70;58.40
27016;DHT22;14557;0.000;0.000;2023-04-03T05:22:24;19.70;58.40
27016;DHT22;14557;0.000;0.000;2023-04-03T05:24:50;19.70;58.40
27016;DHT22;14557;0.000;0.000;2023-04-03T05:27:15;19.60;58.30
27016;DHT22;14557;0.000;0.000;2023-04-03T05:29:42;19.60;58.30
27016;DHT22;14557;0.000;0.000;2023-04-03T05:32:09;19.60;58.30
27016;DHT22;14557;0.000;0.000;2023-04-03T05:34:35;19.60;58.30
27016;DHT22;14557;0.000;0.000;2023-04-03T05:37:00;19.60;58.30
27016;DHT22;14557;0.000;0.000;2023-04-03T05:39:28;19.60;58.30
27016;DHT22;14557;0.000;0.000;2023-04-03T05:41:54;19.60;58.30
27016;DHT22;14557;0.000;0.000;2023-04-03T05:44:19;19.60;58.30
27016;DHT22;14557;0.000;0.000;2023-04-03T05:46:45;19.50;58.20
27016;DHT22;14557;0.000;0.000;2023-04-03T05:49:10;19.60;58.30
27016;DHT22;14557;0.000;0.000;2023-04-03T05:51:37;19.50;58.20
27016;DHT22;14557;0.000;0.000;2023-04-03T05:54:06;19.50;58.20
27016;DHT22;14557;0.000;0.000;2023-04-03T05:56:33;19.50;58.20
27016;DHT22;14557;0.000;0.000;2023-04-03T05:58:59;19.50;58.30
27016;DHT22;14557;0.000;0.000;2023-04-03T06:01:24;19.50;58.20
27016;DHT22;14557;0.000;0.000;2023-04-03T06:03:50;19.50;58.20
27016;DHT22;14557;0.000;0.000;2023-04-03T06:06:15;19.50;58.20
27016;DHT22;14557;0.000;0.000;2023-04-03T06:08:41;19.40;58.20
27016;DHT22;14557;0.000;0.000;2023-04-03T06:11:07;19.50;58.20
27016;DHT22;14557;0.000;0.000;2023-04-03T06:13:34;19.50;58.20
27016;DHT22;14557;0.000;0.000;2023-04-03T06:16:00;19.40;58.20
27016;DHT22;14557;0.000;0.000;2023-04-03T06:18:26;19.40;58.20
27016;DHT22;14557;0.000;0.000;2023-04-03T06:20:51;19.40;58.20
27016;DHT22;14557;0.000;0.000;2023-04-03T06:23:17;19.40;58.20
27016;DHT22;14557;0.000;0.000;2023-04-03T06:25:42;19.40;58.20
27016;DHT22;14557;0.000;0.000;2023-04-03T06:28:08;19.40;58.20
27016;DHT22;14557;0.000;0.000;2023-04-03T06:30:35;19.40;58.20
27016;DHT22;14557;0.000;0.000;2023-04-03T06:33:02;19.40;58.20
27016;DHT22;14557;0.000;0.000;2023-04-03T06:35:27;19.40;58.20
27016;DHT22;14557;0.000;0.000;2023-04-03T06:37:55;19.40;58.20
27016;DHT22;14557;0.000;0.000;2023-04-03T06:40:22;19.40;58.20
27016;DHT22;14557;0.000;0.000;2023-04-03T06:42:48;19.40;58.20
27016;DHT22;14557;0.000;0.000;2023-04-03T06:45:13;19.40;58.20
27016;DHT22;14557;0.000;0.000;2023-04-03T06:47:39;19.40;58.20
27016;DHT22;14557;0.000;0.000;2023-04-03T06:50:05;19.40;58.20
27016;DHT22;14557;0.000;0.000;2023-04-03T06:52:32;19.40;58.10
27016;DHT22;14557;0.000;0.000;2023-04-03T06:54:57;19.40;58.20
27016;DHT22;14557;0.000;0.000;2023-04-03T06:57:25;19.30;58.10
27016;DHT22;14557;0.000;0.000;2023-04-03T06:59:50;19.30;58.10
27016;DHT22;14557;0.000;0.000;2023-04-03T07:02:16;19.30;58.20
27016;DHT22;14557;0.000;0.000;2023-04-03T07:04:42;19.40;58.20
27016;DHT22;14557;0.000;0.000;2023-04-03T07:07:07;19.30;58.10
27016;DHT22;14557;0.000;0.000;2023-04-03T07:09:33;19.40;58.20
27016;DHT22;14557;0.000;0.000;2023-04-03T07:11:59;19.40;58.10
27016;DHT22;14557;0.000;0.000;2023-04-03T07:14:25;19.30;58.00
27016;DHT22;14557;0.000;0.000;2023-04-03T07:16:50;19.40;57.90
27016;DHT22;14557;0.000;0.000;2023-04-03T07:19:16;19.50;57.90
27016;DHT22;14557;0.000;0.000;2023-04-03T07:21:43;19.50;57.90
27016;DHT22;14557;0.000;0.000;2023-04-03T07:24:10;19.50;57.80
27016;DHT22;14557;0.000;0.000;2023-04-03T07:26:35;19.50;57.80
27016;DHT22;14557;0.000;0.000;2023-04-03T07:29:01;19.50;57.70
27016;DHT22;14557;0.000;0.000;2023-04-03T07:31:27;19.50;57.70
27016;DHT22;14557;0.000;0.000;2023-04-03T07:33:52;19.60;57.60
27016;DHT22;14557;0.000;0.000;2023-04-03T07:36:19;19.60;57.50
27016;DHT22;14557;0.000;0.000;2023-04-03T07:38:45;19.70;57.50
27016;DHT22;14557;0.000;0.000;2023-04-03T07:41:11;19.70;57.40
27016;DHT22;14557;0.000;0.000;2023-04-03T07:43:37;19.70;57.30
27016;DHT22;14557;0.000;0.000;2023-04-03T07:46:04;19.70;57.30
27016;DHT22;14557;0.000;0.000;2023-04-03T07:48:30;19.80;57.20
27016;DHT22;14557;0.000;0.000;2023-04-03T07:50:58;19.80;57.00
27016;DHT22;14557;0.000;0.000;2023-04-03T07:53:24;19.90;56.90
27016;DHT22;14557;0.000;0.000;2023-04-03T07:55:50;19.90;56.80
27016;DHT22;14557;0.000;0.000;2023-04-03T07:58:20;19.90;56.70
27016;DHT22;14557;0.000;0.000;2023-04-03T08:00:46;19.90;57.20
27016;DHT22;14557;0.000;0.000;2023-04-03T08:03:12;20.00;56.70
27016;DHT22;14557;0.000;0.000;2023-04-03T08:05:39;20.00;57.10
27016;DHT22;14557;0.000;0.000;2023-04-03T08:08:05;20.10;56.80
27016;DHT22;14557;0.000;0.000;2023-04-03T08:10:31;20.20;56.90
27016;DHT22;14557;0.000;0.000;2023-04-03T08:12:56;20.10;58.20
27016;DHT22;14557;0.000;0.000;2023-04-03T08:15:22;20.20;57.60
27016;DHT22;14557;0.000;0.000;2023-04-03T08:17:47;20.30;58.00
27016;DHT22;14557;0.000;0.000;2023-04-03T08:20:13;20.30;57.10
27016;DHT22;14557;0.000;0.000;2023-04-03T08:22:39;20.30;57.30
27016;DHT22;14557;0.000;0.000;2023-04-03T08:25:04;20.40;60.60
27016;DHT22;14557;0.000;0.000;2023-04-03T08:27:30;20.40;59.20
27016;DHT22;14557;0.000;0.000;2023-04-03T08:29:56;20.40;61.20
27016;DHT22;14557;0.000;0.000;2023-04-03T08:32:22;20.50;59.30
27016;DHT22;14557;0.000;0.000;2023-04-03T08:34:48;20.50;58.90
27016;DHT22;14557;0.000;0.000;2023-04-03T08:37:13;20.50;57.70
27016;DHT22;14557;0.000;0.000;2023-04-03T08:39:41;20.60;57.60
27016;DHT22;14557;0.000;0.000;2023-04-03T08:42:19;20.60;57.40
27016;DHT22;14557;0.000;0.000;2023-04-03T08:47:38;20.70;58.70
27016;DHT22;14557;0.000;0.000;2023-04-03T08:50:07;20.80;59.50
27016;DHT22;14557;0.000;0.000;2023-04-03T08:55:03;20.80;56.80
27016;DHT22;14557;0.000;0.000;2023-04-03T08:57:30;20.90;56.60
27016;DHT22;14557;0.000;0.000;2023-04-03T08:59:58;20.90;60.80
27016;DHT22;14557;0.000;0.000;2023-04-03T09:02:28;21.00;59.70
27016;DHT22;14557;0.000;0.000;2023-04-03T09:04:54;21.00;57.10
27016;DHT22;14557;0.000;0.000;2023-04-03T09:07:26;21.00;56.70
27016;DHT22;14557;0.000;0.000;2023-04-03T09:09:56;21.00;56.30
27016;DHT22;14557;0.000;0.000;2023-04-03T09:12:42;21.10;56.20
27016;DHT22;14557;0.000;0.000;2023-04-03T09:17:59;21.10;55.80
27016;DHT22;14557;0.000;0.000;2023-04-03T09:26:06;21.30;55.30
27016;DHT22;14557;0.000;0.000;2023-04-03T09:28:35;21.30;55.10
27016;DHT22;14557;0.000;0.000;2023-04-03T09:31:05;21.30;55.00
27016;DHT22;14557;0.000;0.000;2023-04-03T09:33:35;21.40;54.80
27016;DHT22;14557;0.000;0.000;2023-04-03T09:36:02;21.40;54.60
27016;DHT22;14557;0.000;0.000;2023-04-03T09:38:27;21.40;54.50
27016;DHT22;14557;0.000;0.000;2023-04-03T09:41:07;21.50;54.50
27016;DHT22;14557;0.000;0.000;2023-04-03T09:43:38;21.60;54.40
27016;DHT22;14557;0.000;0.000;2023-04-03T09:49:05;21.60;53.90
27016;DHT22;14557;0.000;0.000;2023-04-03T09:51:32;21.70;53.70
27016;DHT22;14557;0.000;0.000;2023-04-03T09:53:57;21.70;53.60
27016;DHT22;14557;0.000;0.000;2023-04-03T09:56:27;21.80;53.50
27016;DHT22;14557;0.000;0.000;2023-04-03T10:04:07;21.80;53.40
27016;DHT22;14557;0.000;0.000;2023-04-03T10:06:34;21.90;53.70
27016;DHT22;14557;0.000;0.000;2023-04-03T10:09:02;21.90;53.80
27016;DHT22;14557;0.000;0.000;2023-04-03T10:11:29;21.90;53.80
27016;DHT22;14557;0.000;0.000;2023-04-03T10:13:56;21.90;53.60
27016;DHT22;14557;0.000;0.000;2023-04-03T10:19:04;22.00;53.20
27016;DHT22;14557;0.000;0.000;2023-04-03T10:24:03;22.10;53.10
27016;DHT22;14557;0.000;0.000;2023-04-03T10:27:17;22.10;53.10
27016;DHT22;14557;0.000;0.000;2023-04-03T10:34:43;22.20;52.90
27016;DHT22;14557;0.000;0.000;2023-04-03T10:37:24;22.30;53.00
27016;DHT22;14557;0.000;0.000;2023-04-03T10:48:04;22.40;52.60
27016;DHT22;14557;0.000;0.000;2023-04-03T10:50:38;22.40;52.40
27016;DHT22;14557;0.000;0.000;2023-04-03T10:58:34;22.50;52.30
27016;DHT22;14557;0.000;0.000;2023-04-03T11:01:11;22.50;52.30
27016;DHT22;14557;0.000;0.000;2023-04-03T11:03:39;22.60;52.30
27016;DHT22;14557;0.000;0.000;2023-04-03T11:06:10;22.60;52.40
27016;DHT22;14557;0.000;0.000;2023-04-03T11:11:21;22.70;52.00
27016;DHT22;14557;0.000;0.000;2023-04-03T11:14:03;22.70;51.90
27016;DHT22;14557;0.000;0.000;2023-04-03T11:16:33;22.70;51.90
27016;DHT22;14557;0.000;0.000;2023-04-03T11:19:02;22.80;51.90
27016;DHT22;14557;0.000;0.000;2023-04-03T11:21:29;22.80;51.80
27016;DHT22;14557;0.000;0.000;2023-04-03T11:23:57;22.80;51.80
27016;DHT22;14557;0.000;0.000;2023-04-03T11:26:24;22.90;51.90
27016;DHT22;14557;0.000;0.000;2023-04-03T11:28:55;22.90;51.80
27016;DHT22;14557;0.000;0.000;2023-04-03T11:36:30;23.10;51.30
27016;DHT22;14557;0.000;0.000;2023-04-03T11:38:57;23.10;51.50
27016;DHT22;14557;0.000;0.000;2023-04-03T11:41:25;23.20;51.50
27016;DHT22;14557;0.000;0.000;2023-04-03T11:44:24;23.20;51.70
27016;DHT22;14557;0.000;0.000;2023-04-03T11:46:50;23.20;52.20
27016;DHT22;14557;0.000;0.000;2023-04-03T11:52:02;23.20;53.50
27016;DHT22;14557;0.000;0.000;2023-04-03T11:59:50;23.20;55.00
27016;DHT22;14557;0.000;0.000;2023-04-03T12:02:35;23.20;55.00
27016;DHT22;14557;0.000;0.000;2023-04-03T12:07:59;23.10;55.50
27016;DHT22;14557;0.000;0.000;2023-04-03T12:10:30;23.10;55.60
27016;DHT22;14557;0.000;0.000;2023-04-03T12:12:56;23.20;56.00
27016;DHT22;14557;0.000;0.000;2023-04-03T12:16:05;23.10;55.90
27016;DHT22;14557;0.000;0.000;2023-04-03T12:20:56;23.10;56.60
27016;DHT22;14557;0.000;0.000;2023-04-03T12:25:51;23.10;56.20
27016;DHT22;14557;0.000;0.000;2023-04-03T12:28:21;23.20;57.00
27016;DHT22;14557;0.000;0.000;2023-04-03T12:30:46;23.20;57.40
27016;DHT22;14557;0.000;0.000;2023-04-03T12:33:18;23.20;59.00
27016;DHT22;14557;0.000;0.000;2023-04-03T12:38:20;23.30;58.50
27016;DHT22;14557;0.000;0.000;2023-04-03T12:48:38;23.20;59.50
27016;DHT22;14557;0.000;0.000;2023-04-03T12:51:04;23.20;60.20
27016;DHT22;14557;0.000;0.000;2023-04-03T12:53:34;23.20;59.30
27016;DHT22;14557;0.000;0.000;2023-04-03T12:56:20;23.20;59.50
27016;DHT22;14557;0.000;0.000;2023-04-03T12:58:47;23.20;59.90
27016;DHT22;14557;0.000;0.000;2023-04-03T13:01:20;23.30;59.50
27016;DHT22;14557;0.000;0.000;2023-04-03T13:04:04;23.30;59.30
27016;DHT22;14557;0.000;0.000;2023-04-03T13:06:32;23.30;59.60
27016;DHT22;14557;0.000;0.000;2023-04-03T13:09:00;23.20;59.90
27016;DHT22;14557;0.000;0.000;2023-04-03T13:11:43;23.20;59.90
27016;DHT22;14557;0.000;0.000;2023-04-03T13:14:23;23.20;59.90
27016;DHT22;14557;0.000;0.000;2023-04-03T13:17:11;23.20;60.00
27016;DHT22;14557;0.000;0.000;2023-04-03T13:19:34;23.30;60.00
27016;DHT22;14557;0.000;0.000;2023-04-03T13:22:01;23.20;60.20
27016;DHT22;14557;0.000;0.000;2023-04-03T13:24:28;23.20;60.30
27016;DHT22;14557;0.000;0.000;2023-04-03T13:26:55;23.20;60.30
27016;DHT22;14557;0.000;0.000;2023-04-03T13:29:25;23.20;60.40
27016;DHT22;14557;0.000;0.000;2023-04-03T13:31:55;23.20;60.20
27016;DHT22;14557;0.000;0.000;2023-04-03T13:34:22;23.20;60.50
27016;DHT22;14557;0.000;0.000;2023-04-03T13:36:59;23.20;60.50
27016;DHT22;14557;0.000;0.000;2023-04-03T13:39:26;23.20;60.30
27016;DHT22;14557;0.000;0.000;2023-04-03T13:41:54;23.20;61.60
27016;DHT22;14557;0.000;0.000;2023-04-03T13:46:50;23.30;61.20
27016;DHT22;14557;0.000;0.000;2023-04-03T13:49:20;23.30;61.50
27016;DHT22;14557;0.000;0.000;2023-04-03T13:51:46;23.20;62.30
27016;DHT22;14557;0.000;0.000;2023-04-03T13:54:20;23.30;62.60
27016;DHT22;14557;0.000;0.000;2023-04-03T13:56:47;23.30;63.80
27016;DHT22;14557;0.000;0.000;2023-04-03T14:01:44;23.40;70.90
27016;DHT22;14557;0.000;0.000;2023-04-03T14:04:12;23.40;70.00
27016;DHT22;14557;0.000;0.000;2023-04-03T14:06:38;23.40;65.70
27016;DHT22;14557;0.000;0.000;2023-04-03T14:09:03;23.40;63.90
27016;DHT22;14557;0.000;0.000;2023-04-03T14:11:29;23.50;71.10
27016;DHT22;14557;0.000;0.000;2023-04-03T14:14:00;24.50;62.10
27016;DHT22;14557;0.000;0.000;2023-04-03T14:16:27;26.10;57.30
27016;DHT22;14557;0.000;0.000;2023-04-03T14:18:55;26.50;55.80
27016;DHT22;14557;0.000;0.000;2023-04-03T14:21:20;26.90;54.30
27016;DHT22;14557;0.000;0.000;2023-04-03T14:23:46;26.90;54.90
27016;DHT22;14557;0.000;0.000;2023-04-03T14:26:16;26.60;54.50
27016;DHT22;14557;0.000;0.000;2023-04-03T14:28:43;26.00;56.50
27016;DHT22;14557;0.000;0.000;2023-04-03T14:31:10;25.50;57.40
27016;DHT22;14557;0.000;0.000;2023-04-03T14:33:36;25.30;61.70
27016;DHT22;14557;0.000;0.000;2023-04-03T14:36:05;25.00;59.40
27016;DHT22;14557;0.000;0.000;2023-04-03T14:38:36;24.80;57.90
27016;DHT22;14557;0.000;0.000;2023-04-03T14:41:02;24.70;55.20
27016;DHT22;14557;0.000;0.000;2023-04-03T14:43:27;24.60;53.00
27016;DHT22;14557;0.000;0.000;2023-04-03T14:45:53;24.50;52.70
27016;DHT22;14557;0.000;0.000;2023-04-03T14:48:22;24.40;54.40
27016;DHT22;14557;0.000;0.000;2023-04-03T14:50:49;24.30;51.50
27016;DHT22;14557;0.000;0.000;2023-04-03T14:53:15;24.20;49.30
27016;DHT22;14557;0.000;0.000;2023-04-03T14:55:44;24.10;48.70
27016;DHT22;14557;0.000;0.000;2023-04-03T14:58:14;24.00;47.80
27016;DHT22;14557;0.000;0.000;2023-04-03T15:00:40;24.00;47.80
27016;DHT22;14557;0.000;0.000;2023-04-03T15:03:06;24.00;48.50
27016;DHT22;14557;0.000;0.000;2023-04-03T15:05:31;23.90;48.30
27016;DHT22;14557;0.000;0.000;2023-04-03T15:07:57;23.90;48.60
27016;DHT22;14557;0.000;0.000;2023-04-03T15:10:27;23.80;48.10
27016;DHT22;14557;0.000;0.000;2023-04-03T15:12:53;23.80;48.80
27016;DHT22;14557;0.000;0.000;2023-04-03T15:15:19;23.70;49.00
27016;DHT22;14557;0.000;0.000;2023-04-03T15:17:45;23.70;48.80
27016;DHT22;14557;0.000;0.000;2023-04-03T15:20:14;23.70;48.20
27016;DHT22;14557;0.000;0.000;2023-04-03T15:22:40;23.60;48.40
27016;DHT22;14557;0.000;0.000;2023-04-03T15:25:05;23.60;49.00
27016;DHT22;14557;0.000;0.000;2023-04-03T15:27:31;23.50;49.20
27016;DHT22;14557;0.000;0.000;2023-04-03T15:29:57;23.50;49.60
27016;DHT22;14557;0.000;0.000;2023-04-03T15:32:22;23.40;47.90
27016;DHT22;14557;0.000;0.000;2023-04-03T15:34:48;23.40;48.90
27016;DHT22;14557;0.000;0.000;2023-04-03T15:37:13;23.40;48.90
27016;DHT22;14557;0.000;0.000;2023-04-03T15:39:39;23.30;48.60
27016;DHT22;14557;0.000;0.000;2023-04-03T15:42:04;23.30;48.30
27016;DHT22;14557;0.000;0.000;2023-04-03T15:44:33;23.30;48.80
27016;DHT22;14557;0.000;0.000;2023-04-03T15:46:59;23.20;48.70
27016;DHT22;14557;0.000;0.000;2023-04-03T15:49:25;23.20;48.40
27016;DHT22;14557;0.000;0.000;2023-04-03T15:51:51;23.20;48.60
27016;DHT22;14557;0.000;0.000;2023-04-03T15:54:17;23.20;48.20
27016;DHT22;14557;0.000;0.000;2023-04-03T15:56:42;23.10;48.00
27016;DHT22;14557;0.000;0.000;2023-04-03T15:59:08;23.10;48.90
27016;DHT22;14557;0.000;0.000;2023-04-03T16:01:33;23.00;49.00
27016;DHT22;14557;0.000;0.000;2023-04-03T16:03:59;23.00;49.40
27016;DHT22;14557;0.000;0.000;2023-04-03T16:06:25;23.00;49.80
27016;DHT22;14557;0.000;0.000;2023-04-03T16:08:51;23.00;50.10
27016;DHT22;14557;0.000;0.000;2023-04-03T16:11:16;22.90;48.80
27016;DHT22;14557;0.000;0.000;2023-04-03T16:13:42;23.00;49.50
27016;DHT22;14557;0.000;0.000;2023-04-03T16:16:08;23.00;49.50
27016;DHT22;14557;0.000;0.000;2023-04-03T16:18:35;23.00;49.80
27016;DHT22;14557;0.000;0.000;2023-04-03T16:21:01;22.90;50.10
27016;DHT22;14557;0.000;0.000;2023-04-03T16:23:27;23.00;50.40
27016;DHT22;14557;0.000;0.000;2023-04-03T16:25:52;22.90;51.10
27016;DHT22;14557;0.000;0.000;2023-04-03T16:28:18;22.90;51.90
27016;DHT22;14557;0.000;0.000;2023-04-03T16:30:44;22.90;51.40
27016;DHT22;14557;0.000;0.000;2023-04-03T16:33:11;22.90;51.80
27016;DHT22;14557;0.000;0.000;2023-04-03T16:35:37;22.90;50.70
27016;DHT22;14557;0.000;0.000;2023-04-03T16:38:03;22.90;55.30
27016;DHT22;14557;0.000;0.000;2023-04-03T16:40:28;22.90;54.90
27016;DHT22;14557;0.000;0.000;2023-04-03T16:42:54;23.00;54.80
27016;DHT22;14557;0.000;0.000;2023-04-03T16:45:20;23.10;55.70
27016;DHT22;14557;0.000;0.000;2023-04-03T16:47:46;23.10;56.80
27016;DHT22;14557;0.000;0.000;2023-04-03T16:50:11;23.10;58.40
27016;DHT22;14557;0.000;0.000;2023-04-03T16:52:37;23.20;58.40
27016;DHT22;14557;0.000;0.000;2023-04-03T16:55:02;23.20;59.50
27016;DHT22;14557;0.000;0.000;2023-04-03T16:57:28;23.20;60.50
27016;DHT22;14557;0.000;0.000;2023-04-03T16:59:54;23.20;59.00
27016;DHT22;14557;0.000;0.000;2023-04-03T17:02:20;23.10;55.60
27016;DHT22;14557;0.000;0.000;2023-04-03T17:04:46;23.10;55.40
27016;DHT22;14557;0.000;0.000;2023-04-03T17:07:11;23.00;53.40
27016;DHT22;14557;0.000;0.000;2023-04-03T17:09:37;22.90;50.50
27016;DHT22;14557;0.000;0.000;2023-04-03T17:12:03;22.90;50.50
27016;DHT22;14557;0.000;0.000;2023-04-03T17:14:29;22.80;51.50